Terminal Aerodrome Forecast
Issued by NWS Wilmington, OH

Current Version | Previous Version | Graphics & Text | Print | Product List | Glossary On
Versions: 1 2 3 4 5 6 7 8 9 10 11 12 13 14 15 16
000
FTUS41 KILN 091736
TAFCMH
TAF
KCMH 091736Z 0918/1018 20010KT P6SM VCSH OVC050
     FM092000 23010KT 4SM -SN OVC025
     FM092300 27010G18KT 2SM -SHSN OVC015
     FM100200 27012G22KT P6SM VCSH OVC015
     FM100600 28010G20KT P6SM BKN022
     FM101000 28010KT P6SM BKN022
     FM101300 25008KT P6SM SCT025 BKN200
     FM101600 24012KT P6SM BKN080=

USA.gov is the U.S. government's official web portal to all federal, state and local government web resources and services.